Time;durP1;ratioP1;P1;durP2;ratioP2;P2;SDS_P1;SDS_P2;PMS_P1;PMS_P2;Temp;Humidity;BMP_temperature;BMP_pressure;BME280_temperature;BME280_humidity;BME280_pressure;Samples;Min_cycle;Max_cycle;Signal;HPM_P1;HPM_P2
2023/05/29 00:00:52;;;;;;;;;;;;;;;;;;5050631;28;19974;-63
2023/05/29 00:03:18;;;;;;;;;;;;;;;;;;5052360;28;20283;-63
2023/05/29 00:05:44;;;;;;;;;;;;;;;;;;5053988;28;20250;-63
2023/05/29 00:08:10;;;;;;;;;;;;;;;;;;5054055;28;19931;-63
2023/05/29 00:10:37;;;;;;;;;;;;;;;;;;5054058;28;19971;-64
2023/05/29 00:13:02;;;;;;;;;;;;;;;;;;5053919;28;19960;-63
2023/05/29 00:15:30;;;;;;;;;;;;;;;;;;5053802;28;19975;-63
2023/05/29 00:17:56;;;;;;;;;;;;;;;;;;5018927;28;19932;-64
2023/05/29 00:20:22;;;;;;;;;;;;;;;;;;5053750;28;19921;-63
2023/05/29 00:22:48;;;;;;;;;;;;;;;;;;5053663;28;19936;-64
2023/05/29 00:25:13;;;;;;;;;;;;;;;;;;5035632;28;19970;-64
2023/05/29 00:27:39;;;;;;;;;;;;;;;;;;5053424;28;19921;-64
2023/05/29 00:30:05;;;;;;;;;;;;;;;;;;5035509;28;20324;-64
2023/05/29 00:32:31;;;;;;;;;;;;;;;;;;5053406;28;19931;-63
2023/05/29 00:34:57;;;;;;;;;;;;;;;;;;5053757;28;19932;-63
2023/05/29 00:37:24;;;;;;;;;;;;;;;;;;5053558;28;19933;-64
2023/05/29 00:39:50;;;;;;;;;;;;;;;;;;5035636;28;19925;-64
2023/05/29 00:42:16;;;;;;;;;;;;;;;;;;5018915;28;19928;-63
2023/05/29 00:44:42;;;;;;;;;;;;;;;;;;5053391;28;19980;-64
2023/05/29 00:47:07;;;;;;;;;;;;;;;;;;5035517;28;20366;-64
2023/05/29 00:49:33;;;;;;;;;;;;;;;;;;5053263;28;19924;-64
2023/05/29 00:51:59;;;;;;;;;;;;;;;;;;5053615;28;19921;-64
2023/05/29 00:54:26;;;;;;;;;;;;;;;;;;5053873;28;20285;-64
2023/05/29 00:56:52;;;;;;;;;;;;;;;;;;5035855;28;19934;-64
2023/05/29 00:59:21;;;;;;;;;;;;;;;;;;5035404;28;19928;-64
2023/05/29 01:01:46;;;;;;;;;;;;;;;;;;5035715;28;19924;-63
2023/05/29 01:04:12;;;;;;;;;;;;;;;;;;5053615;28;19928;-63
2023/05/29 01:06:39;;;;;;;;;;;;;;;;;;5053425;28;19925;-63
2023/05/29 01:09:05;;;;;;;;;;;;;;;;;;5053510;28;19925;-64
2023/05/29 01:11:31;;;;;;;;;;;;;;;;;;5053028;28;20051;-64
2023/05/29 01:13:57;;;;;;;;;;;;;;;;;;5052703;28;19928;-64
2023/05/29 01:16:23;;;;;;;;;;;;;;;;;;5034922;28;19936;-64
2023/05/29 01:18:49;;;;;;;;;;;;;;;;;;5052939;28;19924;-64
2023/05/29 01:21:16;;;;;;;;;;;;;;;;;;5052792;28;19924;-66
2023/05/29 01:23:42;;;;;;;;;;;;;;;;;;5052430;28;20012;-64
2023/05/29 01:26:08;;;;;;;;;;;;;;;;;;5052481;28;20011;-64
2023/05/29 01:28:34;;;;;;;;;;;;;;;;;;5052232;28;19924;-64
2023/05/29 01:30:59;;;;;;;;;;;;;;;;;;5052187;28;19925;-64
2023/05/29 01:33:25;;;;;;;;;;;;;;;;;;5052436;28;19947;-64
2023/05/29 01:35:51;;;;;;;;;;;;;;;;;;5052114;28;19928;-64
2023/05/29 01:38:17;;;;;;;;;;;;;;;;;;5052107;28;19987;-64
2023/05/29 01:40:43;;;;;;;;;;;;;;;;;;5052393;28;19925;-64
2023/05/29 01:43:09;;;;;;;;;;;;;;;;;;5052020;28;19998;-64
2023/05/29 01:45:35;;;;;;;;;;;;;;;;;;5052335;28;19970;-64
2023/05/29 01:48:01;;;;;;;;;;;;;;;;;;5053045;28;19924;-64
2023/05/29 01:50:27;;;;;;;;;;;;;;;;;;5052560;28;19924;-66
2023/05/29 01:52:53;;;;;;;;;;;;;;;;;;5052105;28;19921;-64
2023/05/29 01:55:19;;;;;;;;;;;;;;;;;;5051788;28;20370;-63
2023/05/29 01:57:45;;;;;;;;;;;;;;;;;;5034027;28;19935;-64
2023/05/29 02:00:11;;;;;;;;;;;;;;;;;;5051702;28;19921;-64
2023/05/29 02:02:37;;;;;;;;;;;;;;;;;;5051940;28;19955;-64
2023/05/29 02:05:03;;;;;;;;;;;;;;;;;;5051631;28;20057;-63
2023/05/29 02:07:29;;;;;;;;;;;;;;;;;;5051920;28;19928;-63
2023/05/29 02:09:55;;;;;;;;;;;;;;;;;;5033808;28;19928;-64
2023/05/29 02:12:21;;;;;;;;;;;;;;;;;;5051671;28;19928;-63
2023/05/29 02:14:47;;;;;;;;;;;;;;;;;;5052017;28;19924;-63
2023/05/29 02:17:14;;;;;;;;;;;;;;;;;;5034478;28;19931;-63
2023/05/29 02:19:40;;;;;;;;;;;;;;;;;;5051972;28;20436;-64
2023/05/29 02:22:06;;;;;;;;;;;;;;;;;;5052252;28;19920;-64
2023/05/29 02:24:32;;;;;;;;;;;;;;;;;;5034398;28;20019;-63
2023/05/29 02:26:58;;;;;;;;;;;;;;;;;;5051906;28;20402;-63
2023/05/29 02:29:24;;;;;;;;;;;;;;;;;;5051992;28;19960;-64
2023/05/29 02:31:50;;;;;;;;;;;;;;;;;;5051970;28;20367;-63
2023/05/29 02:34:16;;;;;;;;;;;;;;;;;;5052099;28;19920;-63
2023/05/29 02:36:41;;;;;;;;;;;;;;;;;;5051869;28;19921;-63
2023/05/29 02:39:07;;;;;;;;;;;;;;;;;;5034206;28;20302;-64
2023/05/29 02:41:33;;;;;;;;;;;;;;;;;;5034066;28;19928;-64
2023/05/29 02:43:59;;;;;;;;;;;;;;;;;;5052050;28;19924;-64
2023/05/29 02:46:25;;;;;;;;;;;;;;;;;;5051940;28;20007;-63
2023/05/29 02:48:51;;;;;;;;;;;;;;;;;;5051906;28;20062;-63
2023/05/29 02:51:17;;;;;;;;;;;;;;;;;;5051886;28;19932;-63
2023/05/29 02:53:43;;;;;;;;;;;;;;;;;;5051700;28;19968;-63
2023/05/29 02:56:09;;;;;;;;;;;;;;;;;;5051525;28;20026;-63
2023/05/29 02:58:35;;;;;;;;;;;;;;;;;;5051678;28;19935;-63
2023/05/29 03:01:03;;;;;;;;;;;;;;;;;;5051794;28;19920;-63
2023/05/29 03:03:29;;;;;;;;;;;;;;;;;;5051751;28;19944;-64
2023/05/29 03:05:55;;;;;;;;;;;;;;;;;;5051344;28;20363;-63
2023/05/29 03:08:21;;;;;;;;;;;;;;;;;;5017201;28;19925;-63
2023/05/29 03:10:47;;;;;;;;;;;;;;;;;;5051522;28;19931;-63
2023/05/29 03:13:13;;;;;;;;;;;;;;;;;;5051740;28;20290;-64
2023/05/29 03:15:39;;;;;;;;;;;;;;;;;;5032664;28;19975;-64
2023/05/29 03:18:04;;;;;;;;;;;;;;;;;;5050695;28;19994;-63
2023/05/29 03:20:30;;;;;;;;;;;;;;;;;;5050985;28;20371;-64
2023/05/29 03:22:56;;;;;;;;;;;;;;;;;;5050679;28;19921;-63
2023/05/29 03:25:22;;;;;;;;;;;;;;;;;;5050575;28;19920;-64
2023/05/29 03:27:48;;;;;;;;;;;;;;;;;;5033260;28;19928;-63
2023/05/29 03:30:14;;;;;;;;;;;;;;;;;;5050745;28;20282;-64
2023/05/29 03:32:40;;;;;;;;;;;;;;;;;;5050537;28;19967;-63
2023/05/29 03:35:06;;;;;;;;;;;;;;;;;;5050521;28;20439;-63
2023/05/29 03:37:32;;;;;;;;;;;;;;;;;;5033896;28;19964;-63
2023/05/29 03:39:58;;;;;;;;;;;;;;;;;;5055326;28;20046;-63
2023/05/29 03:42:24;;;;;;;;;;;;;;;;;;5055126;28;19924;-64
2023/05/29 03:44:50;;;;;;;;;;;;;;;;;;5055266;28;20393;-64
2023/05/29 03:47:15;;;;;;;;;;;;;;;;;;5055061;28;19927;-64
2023/05/29 03:49:41;;;;;;;;;;;;;;;;;;5054970;28;19925;-63
2023/05/29 03:52:07;;;;;;;;;;;;;;;;;;5055076;28;20010;-64
2023/05/29 03:54:33;;;;;;;;;;;;;;;;;;5054797;28;20004;-63
2023/05/29 03:56:59;;;;;;;;;;;;;;;;;;5054870;28;19921;-64
2023/05/29 03:59:25;;;;;;;;;;;;;;;;;;5055007;28;19964;-63
2023/05/29 04:01:51;;;;;;;;;;;;;;;;;;5036621;28;19982;-63
2023/05/29 04:04:17;;;;;;;;;;;;;;;;;;5054622;28;19990;-62
2023/05/29 04:06:43;;;;;;;;;;;;;;;;;;5054133;28;19931;-63
2023/05/29 04:09:09;;;;;;;;;;;;;;;;;;5054097;28;19972;-63
2023/05/29 04:11:35;;;;;;;;;;;;;;;;;;5054043;28;19928;-63
2023/05/29 04:14:01;;;;;;;;;;;;;;;;;;5054260;28;19927;-63
2023/05/29 04:16:27;;;;;;;;;;;;;;;;;;5053810;28;19928;-63
2023/05/29 04:18:52;;;;;;;;;;;;;;;;;;5053725;28;19929;-64
2023/05/29 04:21:18;;;;;;;;;;;;;;;;;;5035522;28;19943;-64
2023/05/29 04:23:44;;;;;;;;;;;;;;;;;;5053584;28;19968;-64
2023/05/29 04:26:10;;;;;;;;;;;;;;;;;;5053742;28;19925;-64
2023/05/29 04:28:37;;;;;;;;;;;;;;;;;;5053570;28;19929;-64
2023/05/29 04:31:03;;;;;;;;;;;;;;;;;;5053691;28;19939;-63
2023/05/29 04:33:29;;;;;;;;;;;;;;;;;;5054290;28;20039;-64
2023/05/29 04:35:55;;;;;;;;;;;;;;;;;;5054009;28;20358;-64
2023/05/29 04:38:24;;;;;;;;;;;;;;;;;;5053895;28;19956;-63
2023/05/29 04:40:50;;;;;;;;;;;;;;;;;;5054079;28;19929;-64
2023/05/29 04:43:16;;;;;;;;;;;;;;;;;;5035849;28;19929;-63
2023/05/29 04:45:42;;;;;;;;;;;;;;;;;;5054153;28;19928;-63
2023/05/29 04:48:08;;;;;;;;;;;;;;;;;;5053455;28;19932;-63
2023/05/29 04:50:36;;;;;;;;;;;;;;;;;;5035820;28;19925;-63
2023/05/29 04:53:02;;;;;;;;;;;;;;;;;;5053688;28;19928;-64
2023/05/29 04:55:28;;;;;;;;;;;;;;;;;;5053679;28;19935;-63
2023/05/29 04:57:54;;;;;;;;;;;;;;;;;;5053769;28;19931;-63
2023/05/29 05:00:20;;;;;;;;;;;;;;;;;;5053787;28;20016;-63
2023/05/29 05:02:46;;;;;;;;;;;;;;;;;;5053434;28;19925;-63
2023/05/29 05:05:12;;;;;;;;;;;;;;;;;;5035474;28;19975;-63
2023/05/29 05:07:38;;;;;;;;;;;;;;;;;;5035537;28;19933;-63
2023/05/29 05:10:04;;;;;;;;;;;;;;;;;;5053746;28;19921;-63
2023/05/29 05:12:30;;;;;;;;;;;;;;;;;;5053360;28;19961;-64
2023/05/29 05:14:56;;;;;;;;;;;;;;;;;;5035490;28;19987;-64
2023/05/29 05:17:22;;;;;;;;;;;;;;;;;;5053110;28;20374;-64
2023/05/29 05:19:53;;;;;;;;;;;;;;;;;;5052453;28;19932;-64
2023/05/29 05:22:19;;;;;;;;;;;;;;;;;;5052524;28;20011;-64
2023/05/29 05:24:45;;;;;;;;;;;;;;;;;;5053296;28;20012;-64
2023/05/29 05:27:10;;;;;;;;;;;;;;;;;;5034727;28;20357;-64
2023/05/29 05:29:36;;;;;;;;;;;;;;;;;;5052455;28;19927;-63
2023/05/29 05:32:02;;;;;;;;;;;;;;;;;;5053308;28;19955;-63
2023/05/29 05:34:28;;;;;;;;;;;;;;;;;;5053121;28;19932;-63
2023/05/29 05:36:54;;;;;;;;;;;;;;;;;;5053172;28;19931;-63
2023/05/29 05:39:20;;;;;;;;;;;;;;;;;;5053006;28;19924;-63
2023/05/29 05:41:46;;;;;;;;;;;;;;;;;;5018415;28;19931;-63
2023/05/29 05:44:12;;;;;;;;;;;;;;;;;;5052825;28;19925;-64
2023/05/29 05:46:38;;;;;;;;;;;;;;;;;;5052921;28;19932;-63
2023/05/29 05:49:04;;;;;;;;;;;;;;;;;;5052675;28;20394;-63
2023/05/29 05:51:30;;;;;;;;;;;;;;;;;;5052874;28;20278;-63
2023/05/29 05:53:56;;;;;;;;;;;;;;;;;;5052703;28;19920;-64
2023/05/29 05:56:22;;;;;;;;;;;;;;;;;;5034628;28;19927;-63
2023/05/29 05:58:50;;;;;;;;;;;;;;;;;;5051839;28;20313;-63
2023/05/29 06:01:15;;;;;;;;;;;;;;;;;;5052080;28;19927;-63
2023/05/29 06:03:41;;;;;;;;;;;;;;;;;;5052216;28;19921;-64
2023/05/29 06:06:09;;;;;;;;;;;;;;;;;;5052283;28;19948;-64
2023/05/29 06:08:35;;;;;;;;;;;;;;;;;;5052515;28;19929;-64
2023/05/29 06:11:01;;;;;;;;;;;;;;;;;;5052446;28;19999;-65
2023/05/29 06:13:27;;;;;;;;;;;;;;;;;;5052554;28;19925;-64
2023/05/29 06:15:53;;;;;;;;;;;;;;;;;;5052312;28;19921;-64
2023/05/29 06:18:19;;;;;;;;;;;;;;;;;;5051940;28;19978;-65
2023/05/29 06:20:45;;;;;;;;;;;;;;;;;;5051582;28;20370;-65
2023/05/29 06:23:11;;;;;;;;;;;;;;;;;;5051946;28;19921;-64
2023/05/29 06:25:38;;;;;;;;;;;;;;;;;;5051844;28;19929;-65
2023/05/29 06:28:05;;;;;;;;;;;;;;;;;;5051381;28;19921;-65
2023/05/29 06:30:31;;;;;;;;;;;;;;;;;;5051137;28;19978;-64
2023/05/29 06:32:57;;;;;;;;;;;;;;;;;;5033008;28;19928;-66
2023/05/29 06:35:23;;;;;;;;;;;;;;;;;;5033045;28;20352;-65
2023/05/29 06:37:49;;;;;;;;;;;;;;;;;;5051235;28;19928;-64
2023/05/29 06:40:18;;;;;;;;;;;;;;;;;;5051069;28;19921;-64
2023/05/29 06:42:44;;;;;;;;;;;;;;;;;;5051305;28;19978;-63
2023/05/29 06:45:10;;;;;;;;;;;;;;;;;;5051180;28;19921;-64
2023/05/29 06:47:36;;;;;;;;;;;;;;;;;;5051205;28;20570;-64
2023/05/29 06:50:02;;;;;;;;;;;;;;;;;;5051749;28;19921;-63
2023/05/29 06:52:28;;;;;;;;;;;;;;;;;;5051986;28;19920;-64
2023/05/29 06:54:55;;;;;;;;;;;;;;;;;;5033879;28;20618;-63
2023/05/29 06:57:21;;;;;;;;;;;;;;;;;;5033766;28;20378;-64
2023/05/29 06:59:46;;;;;;;;;;;;;;;;;;5051757;28;20011;-64
2023/05/29 07:02:12;;;;;;;;;;;;;;;;;;5051580;28;20103;-64
2023/05/29 07:04:38;;;;;;;;;;;;;;;;;;5051671;28;19999;-63
2023/05/29 07:07:04;;;;;;;;;;;;;;;;;;5051430;28;20290;-63
2023/05/29 07:09:30;;;;;;;;;;;;;;;;;;5051555;28;19937;-64
2023/05/29 07:11:56;;;;;;;;;;;;;;;;;;5053049;28;20322;-64
2023/05/29 07:14:22;;;;;;;;;;;;;;;;;;5055707;28;20275;-64
2023/05/29 07:16:48;;;;;;;;;;;;;;;;;;5055697;28;19924;-62
2023/05/29 07:19:14;;;;;;;;;;;;;;;;;;5055576;28;19933;-64
2023/05/29 07:21:40;;;;;;;;;;;;;;;;;;5055670;28;20357;-63
2023/05/29 07:24:06;;;;;;;;;;;;;;;;;;5055304;28;19928;-64
2023/05/29 07:26:32;;;;;;;;;;;;;;;;;;5054646;28;19920;-63
2023/05/29 07:28:58;;;;;;;;;;;;;;;;;;5054565;28;20286;-63
2023/05/29 07:31:23;;;;;;;;;;;;;;;;;;5055240;28;19983;-63
2023/05/29 07:33:49;;;;;;;;;;;;;;;;;;5055001;28;20004;-64
2023/05/29 07:36:16;;;;;;;;;;;;;;;;;;5054608;28;19921;-65
2023/05/29 07:38:42;;;;;;;;;;;;;;;;;;5054892;28;19928;-65
2023/05/29 07:41:08;;;;;;;;;;;;;;;;;;5036675;28;19974;-64
2023/05/29 07:43:33;;;;;;;;;;;;;;;;;;5054483;28;20416;-64
2023/05/29 07:45:59;;;;;;;;;;;;;;;;;;5055070;28;19921;-64
2023/05/29 07:48:25;;;;;;;;;;;;;;;;;;5055256;28;20397;-63
2023/05/29 07:50:51;;;;;;;;;;;;;;;;;;5055166;28;19925;-64
2023/05/29 07:53:17;;;;;;;;;;;;;;;;;;5036931;28;19932;-63
2023/05/29 07:55:43;;;;;;;;;;;;;;;;;;5054813;28;19920;-64
2023/05/29 07:58:11;;;;;;;;;;;;;;;;;;5054763;28;19928;-64
2023/05/29 08:00:37;;;;;;;;;;;;;;;;;;5054659;28;20457;-65
2023/05/29 08:03:03;;;;;;;;;;;;;;;;;;5054945;28;19925;-64
2023/05/29 08:05:31;;;;;;;;;;;;;;;;;;5054568;28;20015;-63
2023/05/29 08:07:58;;;;;;;;;;;;;;;;;;5036819;28;19925;-64
2023/05/29 08:10:25;;;;;;;;;;;;;;;;;;5054741;28;19925;-64
2023/05/29 08:12:51;;;;;;;;;;;;;;;;;;5054762;28;19921;-64
2023/05/29 08:15:17;;;;;;;;;;;;;;;;;;5036325;28;19932;-64
2023/05/29 08:17:43;;;;;;;;;;;;;;;;;;5036556;28;19929;-64
2023/05/29 08:20:10;;;;;;;;;;;;;;;;;;5062370;22;19969;-60
2023/05/29 08:22:36;;;;;;;;;;;;;;;;;;5056224;28;20325;-60
2023/05/29 08:25:02;;;;;;;;;;;;;;;;;;5054379;28;19968;-59
2023/05/29 08:27:28;;;;;;;;;;;;;;;;;;5054207;28;19925;-59
2023/05/29 08:29:55;;;;;;;;;;;;;;;;;;5055001;28;19920;-60
2023/05/29 08:32:21;;;;;;;;;;;;;;;;;;5054350;28;19972;-60
2023/05/29 08:34:48;;;;;;;;;;;;;;;;;;5054408;28;19966;-60
2023/05/29 08:37:13;;;;;;;;;;;;;;;;;;5036644;28;19928;-60
2023/05/29 08:39:40;;;;;;;;;;;;;;;;;;5036439;28;19947;-60
2023/05/29 08:42:06;;;;;;;;;;;;;;;;;;5053827;28;19920;-60
2023/05/29 08:44:32;;;;;;;;;;;;;;;;;;5054187;28;20337;-60
2023/05/29 08:46:58;;;;;;;;;;;;;;;;;;5053990;28;19991;-60
2023/05/29 08:49:25;;;;;;;;;;;;;;;;;;5054129;28;19928;-60
2023/05/29 08:51:51;;;;;;;;;;;;;;;;;;5053838;28;19931;-60
2023/05/29 08:54:16;;;;;;;;;;;;;;;;;;5054528;28;19921;-60
2023/05/29 08:56:42;;;;;;;;;;;;;;;;;;5053670;28;19924;-59
2023/05/29 08:59:08;;;;;;;;;;;;;;;;;;5053921;28;20708;-60
2023/05/29 09:01:35;;;;;;;;;;;;;;;;;;5035669;28;19932;-59
2023/05/29 09:04:01;;;;;;;;;;;;;;;;;;5053688;28;19921;-60
2023/05/29 09:06:27;;;;;;;;;;;;;;;;;;5035513;28;20016;-59
2023/05/29 09:08:54;;;;;;;;;;;;;;;;;;5053649;28;20327;-60
2023/05/29 09:11:21;;;;;;;;;;;;;;;;;;5053025;28;20423;-60
2023/05/29 09:13:47;;;;;;;;;;;;;;;;;;5053018;28;19975;-60
2023/05/29 09:16:12;;;;;;;;;;;;;;;;;;5052966;28;19928;-61
2023/05/29 09:18:38;;;;;;;;;;;;;;;;;;5052740;28;20333;-60
2023/05/29 09:21:04;;;;;;;;;;;;;;;;;;5034538;28;19964;-60
2023/05/29 09:23:30;;;;;;;;;;;;;;;;;;5034553;28;19943;-60
2023/05/29 09:25:56;;;;;;;;;;;;;;;;;;5053033;28;19921;-60
2023/05/29 09:28:23;;;;;;;;;;;;;;;;;;5035640;28;19920;-60
2023/05/29 09:30:49;;;;;;;;;;;;;;;;;;5053205;28;19925;-60
2023/05/29 09:33:15;;;;;;;;;;;;;;;;;;5053227;28;19966;-60
2023/05/29 09:35:41;;;;;;;;;;;;;;;;;;5017472;28;19929;-60
2023/05/29 09:38:07;;;;;;;;;;;;;;;;;;5052892;28;19928;-60
2023/05/29 09:40:34;;;;;;;;;;;;;;;;;;5053116;28;19921;-60
2023/05/29 09:43:01;;;;;;;;;;;;;;;;;;5035219;28;19947;-60
2023/05/29 09:45:28;;;;;;;;;;;;;;;;;;5052927;28;20038;-60
2023/05/29 09:47:54;;;;;;;;;;;;;;;;;;5051949;28;19964;-60
2023/05/29 09:50:20;;;;;;;;;;;;;;;;;;5051980;28;20015;-60
2023/05/29 09:52:46;;;;;;;;;;;;;;;;;;5052228;28;19946;-61
2023/05/29 09:55:12;;;;;;;;;;;;;;;;;;5051916;28;19931;-61
2023/05/29 09:57:39;;;;;;;;;;;;;;;;;;5051948;28;19925;-60
2023/05/29 10:00:12;;;;;;;;;;;;;;;;;;5051884;28;19924;-60
2023/05/29 10:02:39;;;;;;;;;;;;;;;;;;5051880;28;19920;-60
2023/05/29 10:05:06;;;;;;;;;;;;;;;;;;5052170;28;19925;-60
2023/05/29 10:07:32;;;;;;;;;;;;;;;;;;5051639;28;20584;-60
2023/05/29 10:09:58;;;;;;;;;;;;;;;;;;5052047;28;19921;-60
2023/05/29 10:12:24;;;;;;;;;;;;;;;;;;5052427;28;19967;-60
2023/05/29 10:14:50;;;;;;;;;;;;;;;;;;5052619;28;20656;-60
2023/05/29 10:17:16;;;;;;;;;;;;;;;;;;5052047;28;19983;-60
2023/05/29 10:19:42;;;;;;;;;;;;;;;;;;5052255;28;19927;-60
2023/05/29 10:22:08;;;;;;;;;;;;;;;;;;5051792;28;19964;-60
2023/05/29 10:24:34;;;;;;;;;;;;;;;;;;5034407;28;20560;-60
2023/05/29 10:27:01;;;;;;;;;;;;;;;;;;5034106;28;19931;-60
2023/05/29 10:29:26;;;;;;;;;;;;;;;;;;5052021;28;19928;-60
2023/05/29 10:31:52;;;;;;;;;;;;;;;;;;5034078;28;19920;-60
2023/05/29 10:34:18;;;;;;;;;;;;;;;;;;5052138;28;19929;-60
2023/05/29 10:36:44;;;;;;;;;;;;;;;;;;5052378;28;20061;-60
2023/05/29 10:39:10;;;;;;;;;;;;;;;;;;5052126;28;20011;-60
2023/05/29 10:41:40;;;;;;;;;;;;;;;;;;5034012;28;19970;-60
2023/05/29 10:44:06;;;;;;;;;;;;;;;;;;5052065;28;19924;-60
2023/05/29 10:46:32;;;;;;;;;;;;;;;;;;5051852;28;20074;-60
2023/05/29 10:48:58;;;;;;;;;;;;;;;;;;5052065;28;20388;-60
2023/05/29 10:51:24;;;;;;;;;;;;;;;;;;5033376;28;19929;-60
2023/05/29 10:53:50;;;;;;;;;;;;;;;;;;5051835;28;19920;-60
2023/05/29 10:56:16;;;;;;;;;;;;;;;;;;5033724;28;19976;-60
2023/05/29 10:58:43;;;;;;;;;;;;;;;;;;5050772;28;20410;-60
2023/05/29 11:01:09;;;;;;;;;;;;;;;;;;5051749;28;19975;-60
2023/05/29 11:03:36;;;;;;;;;;;;;;;;;;5051720;28;19925;-60
2023/05/29 11:06:02;;;;;;;;;;;;;;;;;;5051950;28;20090;-60
2023/05/29 11:08:28;;;;;;;;;;;;;;;;;;5051792;28;20023;-60
2023/05/29 11:10:54;;;;;;;;;;;;;;;;;;5051786;28;19924;-60
2023/05/29 11:13:20;;;;;;;;;;;;;;;;;;5051504;28;20325;-60
2023/05/29 11:15:45;;;;;;;;;;;;;;;;;;5033482;28;19928;-60
2023/05/29 11:18:11;;;;;;;;;;;;;;;;;;5051607;28;19970;-60
2023/05/29 11:20:37;;;;;;;;;;;;;;;;;;5051304;28;19943;-61
2023/05/29 11:23:03;;;;;;;;;;;;;;;;;;5033837;28;19928;-60
2023/05/29 11:25:29;;;;;;;;;;;;;;;;;;5051459;28;19982;-60
2023/05/29 11:27:56;;;;;;;;;;;;;;;;;;5016909;28;20595;-59
2023/05/29 11:30:22;;;;;;;;;;;;;;;;;;5051100;28;19928;-61
2023/05/29 11:32:48;;;;;;;;;;;;;;;;;;5033372;28;19920;-60
2023/05/29 11:35:14;;;;;;;;;;;;;;;;;;5032916;28;19921;-60
2023/05/29 11:37:40;;;;;;;;;;;;;;;;;;5033463;28;19925;-61
2023/05/29 11:40:06;;;;;;;;;;;;;;;;;;5051379;28;19921;-61
2023/05/29 11:42:31;;;;;;;;;;;;;;;;;;5051411;28;19921;-60
2023/05/29 11:44:57;;;;;;;;;;;;;;;;;;5051189;28;19921;-60
2023/05/29 11:47:24;;;;;;;;;;;;;;;;;;5051125;28;19986;-60
2023/05/29 11:49:49;;;;;;;;;;;;;;;;;;5051039;28;20410;-60
2023/05/29 11:52:16;;;;;;;;;;;;;;;;;;5051225;28;19936;-60
2023/05/29 11:54:47;;;;;;;;;;;;;;;;;;5051162;28;20008;-60
2023/05/29 11:57:12;;;;;;;;;;;;;;;;;;5050972;28;19936;-61
2023/05/29 11:59:38;;;;;;;;;;;;;;;;;;5053617;28;19925;-60
2023/05/29 12:02:04;;;;;;;;;;;;;;;;;;5054974;28;19925;-61
2023/05/29 12:04:30;;;;;;;;;;;;;;;;;;5054841;28;19921;-60
2023/05/29 12:06:56;;;;;;;;;;;;;;;;;;5054689;28;19946;-60
2023/05/29 12:09:22;;;;;;;;;;;;;;;;;;5054553;28;20365;-60
2023/05/29 12:11:48;;;;;;;;;;;;;;;;;;5054705;28;20004;-62
2023/05/29 12:14:14;;;;;;;;;;;;;;;;;;5036247;28;19975;-60
2023/05/29 12:16:40;;;;;;;;;;;;;;;;;;5036453;28;20470;-60
2023/05/29 12:19:06;;;;;;;;;;;;;;;;;;5054565;28;19925;-60
2023/05/29 12:21:32;;;;;;;;;;;;;;;;;;5054340;28;19971;-60
2023/05/29 12:23:58;;;;;;;;;;;;;;;;;;5054624;28;19920;-60
2023/05/29 12:26:25;;;;;;;;;;;;;;;;;;5036607;28;20027;-60
2023/05/29 12:28:52;;;;;;;;;;;;;;;;;;5054281;28;19967;-60
2023/05/29 12:31:18;;;;;;;;;;;;;;;;;;5054321;28;20011;-60
2023/05/29 12:33:44;;;;;;;;;;;;;;;;;;5054417;28;20007;-60
2023/05/29 12:36:10;;;;;;;;;;;;;;;;;;5054072;28;19925;-60
2023/05/29 12:38:36;;;;;;;;;;;;;;;;;;5054278;28;20006;-60
2023/05/29 12:41:02;;;;;;;;;;;;;;;;;;5053950;28;19983;-60
2023/05/29 12:43:28;;;;;;;;;;;;;;;;;;5053959;28;19921;-60
2023/05/29 12:45:54;;;;;;;;;;;;;;;;;;5053991;28;20050;-60
2023/05/29 12:48:21;;;;;;;;;;;;;;;;;;5054107;28;19925;-60
2023/05/29 12:50:47;;;;;;;;;;;;;;;;;;5053982;28;19977;-60
2023/05/29 12:53:13;;;;;;;;;;;;;;;;;;5054538;28;20019;-59
2023/05/29 12:55:39;;;;;;;;;;;;;;;;;;5035648;28;19929;-59
2023/05/29 12:58:05;;;;;;;;;;;;;;;;;;5053837;28;20443;-59
2023/05/29 13:00:31;;;;;;;;;;;;;;;;;;5053781;28;19964;-60
2023/05/29 13:02:58;;;;;;;;;;;;;;;;;;5053905;28;19943;-60
2023/05/29 13:05:24;;;;;;;;;;;;;;;;;;5053747;28;20275;-60
2023/05/29 13:07:50;;;;;;;;;;;;;;;;;;5053598;28;19925;-60
2023/05/29 13:10:16;;;;;;;;;;;;;;;;;;5053183;28;20481;-60
2023/05/29 13:12:42;;;;;;;;;;;;;;;;;;5052966;28;19921;-60
2023/05/29 13:15:08;;;;;;;;;;;;;;;;;;5053077;28;20336;-60
2023/05/29 13:17:34;;;;;;;;;;;;;;;;;;5053490;28;19920;-59
2023/05/29 13:20:00;;;;;;;;;;;;;;;;;;5035378;28;19920;-60
2023/05/29 13:22:30;;;;;;;;;;;;;;;;;;5052995;28;19921;-59
2023/05/29 13:24:56;;;;;;;;;;;;;;;;;;5052982;28;19921;-60
2023/05/29 13:27:23;;;;;;;;;;;;;;;;;;5052687;28;20011;-60
2023/05/29 13:29:49;;;;;;;;;;;;;;;;;;5052682;28;20374;-60
2023/05/29 13:32:15;;;;;;;;;;;;;;;;;;5053108;28;19920;-59
2023/05/29 13:34:41;;;;;;;;;;;;;;;;;;5052951;28;20431;-59
2023/05/29 13:37:07;;;;;;;;;;;;;;;;;;5052725;28;19925;-59
2023/05/29 13:39:33;;;;;;;;;;;;;;;;;;5052608;28;19943;-60
2023/05/29 13:42:00;;;;;;;;;;;;;;;;;;5052487;28;19932;-59
2023/05/29 13:44:26;;;;;;;;;;;;;;;;;;5034663;28;19925;-60
2023/05/29 13:46:52;;;;;;;;;;;;;;;;;;5034667;28;20027;-59
2023/05/29 13:49:18;;;;;;;;;;;;;;;;;;5052566;28;20446;-59
2023/05/29 13:51:46;;;;;;;;;;;;;;;;;;5052801;28;20354;-59
2023/05/29 13:54:12;;;;;;;;;;;;;;;;;;5052917;28;20031;-60
2023/05/29 13:56:38;;;;;;;;;;;;;;;;;;5052512;28;20012;-60
2023/05/29 13:59:05;;;;;;;;;;;;;;;;;;5034715;28;19931;-60
2023/05/29 14:01:31;;;;;;;;;;;;;;;;;;5052663;28;19921;-59
2023/05/29 14:03:57;;;;;;;;;;;;;;;;;;5034835;28;19960;-60
2023/05/29 14:06:23;;;;;;;;;;;;;;;;;;5052488;28;20030;-60
2023/05/29 14:08:49;;;;;;;;;;;;;;;;;;5034624;28;19955;-59
2023/05/29 14:11:15;;;;;;;;;;;;;;;;;;5052397;28;20263;-59
2023/05/29 14:13:41;;;;;;;;;;;;;;;;;;5052498;28;19927;-59
2023/05/29 14:16:07;;;;;;;;;;;;;;;;;;5052063;28;19933;-60
2023/05/29 14:18:33;;;;;;;;;;;;;;;;;;5052375;28;19925;-59
2023/05/29 14:20:59;;;;;;;;;;;;;;;;;;5051502;28;20078;-59
2023/05/29 14:23:25;;;;;;;;;;;;;;;;;;5034116;28;19920;-59
2023/05/29 14:25:53;;;;;;;;;;;;;;;;;;5052191;28;19925;-59
2023/05/29 14:28:19;;;;;;;;;;;;;;;;;;5052261;28;19959;-59
2023/05/29 14:30:45;;;;;;;;;;;;;;;;;;5034075;28;19924;-59
2023/05/29 14:33:11;;;;;;;;;;;;;;;;;;5052061;28;19926;-59
2023/05/29 14:35:37;;;;;;;;;;;;;;;;;;5034107;28;19929;-59
2023/05/29 14:38:03;;;;;;;;;;;;;;;;;;5052099;28;20000;-60
2023/05/29 14:40:30;;;;;;;;;;;;;;;;;;5051893;28;20329;-59
2023/05/29 14:42:56;;;;;;;;;;;;;;;;;;5052069;28;19977;-59
2023/05/29 14:45:22;;;;;;;;;;;;;;;;;;5052073;28;19920;-60
2023/05/29 14:47:48;;;;;;;;;;;;;;;;;;5033834;28;19982;-59
2023/05/29 14:50:15;;;;;;;;;;;;;;;;;;5033973;28;19924;-59
2023/05/29 14:52:41;;;;;;;;;;;;;;;;;;5033858;28;19946;-59
2023/05/29 14:55:07;;;;;;;;;;;;;;;;;;5051191;28;20003;-60
2023/05/29 14:57:34;;;;;;;;;;;;;;;;;;5050930;28;19929;-60
2023/05/29 15:00:00;;;;;;;;;;;;;;;;;;5051274;28;19920;-60
2023/05/29 15:02:26;;;;;;;;;;;;;;;;;;5051219;28;19924;-59
2023/05/29 15:04:52;;;;;;;;;;;;;;;;;;5051039;28;19947;-59
2023/05/29 15:07:18;;;;;;;;;;;;;;;;;;5050805;28;19929;-59
2023/05/29 15:09:44;;;;;;;;;;;;;;;;;;5050864;28;20263;-59
2023/05/29 15:12:10;;;;;;;;;;;;;;;;;;5033020;28;19924;-60
2023/05/29 15:14:37;;;;;;;;;;;;;;;;;;5033035;28;19921;-60
2023/05/29 15:17:03;;;;;;;;;;;;;;;;;;5050977;28;19955;-60
2023/05/29 15:19:29;;;;;;;;;;;;;;;;;;5033010;28;19925;-60
2023/05/29 15:21:55;;;;;;;;;;;;;;;;;;5029597;28;19925;-62
2023/05/29 15:24:20;;;;;;;;;;;;;;;;;;5030588;28;19987;-62
2023/05/29 15:26:46;;;;;;;;;;;;;;;;;;5031059;28;19925;-62
2023/05/29 15:29:12;;;;;;;;;;;;;;;;;;5030788;28;19928;-62
2023/05/29 15:31:38;;;;;;;;;;;;;;;;;;5031648;28;20015;-62
2023/05/29 15:34:04;;;;;;;;;;;;;;;;;;5034855;28;19921;-62
2023/05/29 15:36:30;;;;;;;;;;;;;;;;;;5035451;28;20298;-62
2023/05/29 15:38:56;;;;;;;;;;;;;;;;;;5034023;28;19932;-62
2023/05/29 15:41:28;;;;;;;;;;;;;;;;;;5034886;28;20035;-62
2023/05/29 15:43:54;;;;;;;;;;;;;;;;;;5034720;28;19921;-62
2023/05/29 15:46:20;;;;;;;;;;;;;;;;;;5034971;28;20428;-61
2023/05/29 15:48:46;;;;;;;;;;;;;;;;;;5034362;28;19921;-61
2023/05/29 15:51:12;;;;;;;;;;;;;;;;;;5033385;28;20022;-62
2023/05/29 15:53:38;;;;;;;;;;;;;;;;;;5034862;28;19925;-62
2023/05/29 15:56:04;;;;;;;;;;;;;;;;;;5033655;28;20024;-62
2023/05/29 15:58:30;;;;;;;;;;;;;;;;;;5034829;28;20008;-59
2023/05/29 16:00:56;;;;;;;;;;;;;;;;;;5033233;28;19921;-61
2023/05/29 16:03:22;;;;;;;;;;;;;;;;;;5034406;28;19984;-60
2023/05/29 16:05:48;;;;;;;;;;;;;;;;;;5034811;28;20413;-61
2023/05/29 16:08:14;;;;;;;;;;;;;;;;;;5034648;28;19921;-60
2023/05/29 16:10:42;;;;;;;;;;;;;;;;;;5034934;28;20016;-59
2023/05/29 16:13:08;;;;;;;;;;;;;;;;;;5034552;28;19925;-60
2023/05/29 16:15:34;;;;;;;;;;;;;;;;;;5034838;28;19979;-60
2023/05/29 16:18:00;;;;;;;;;;;;;;;;;;5034674;28;19921;-60
2023/05/29 16:20:26;;;;;;;;;;;;;;;;;;5039768;28;19925;-60
2023/05/29 16:22:52;;;;;;;;;;;;;;;;;;5036980;28;19924;-60
2023/05/29 16:25:18;;;;;;;;;;;;;;;;;;5054615;28;20370;-60
2023/05/29 16:27:45;;;;;;;;;;;;;;;;;;5054442;28;19921;-60
2023/05/29 16:30:11;;;;;;;;;;;;;;;;;;5054315;28;19924;-60
2023/05/29 16:32:37;;;;;;;;;;;;;;;;;;5036676;28;19920;-61
2023/05/29 16:35:03;;;;;;;;;;;;;;;;;;5054419;28;19947;-61
2023/05/29 16:37:29;;;;;;;;;;;;;;;;;;5054340;28;19925;-58